sensor_id;sensor_type;location;lat;lon;timestamp;temperature;humidity
22714;DHT22;11524;50.846;4.326;2022-09-09T00:01:47;24.40;58.20
22714;DHT22;11524;50.846;4.326;2022-09-09T00:04:27;24.40;58.70
22714;DHT22;11524;50.846;4.326;2022-09-09T00:10:21;24.40;58.20
22714;DHT22;11524;50.846;4.326;2022-09-09T00:13:11;24.40;58.20
22714;DHT22;11524;50.846;4.326;2022-09-09T00:16:08;24.40;58.30
22714;DHT22;11524;50.846;4.326;2022-09-09T00:21:05;24.30;58.10
22714;DHT22;11524;50.846;4.326;2022-09-09T00:23:45;24.30;58.10
22714;DHT22;11524;50.846;4.326;2022-09-09T00:32:11;24.30;57.80
22714;DHT22;11524;50.846;4.326;2022-09-09T00:34:48;24.30;57.90
22714;DHT22;11524;50.846;4.326;2022-09-09T00:37:14;24.30;58.00
22714;DHT22;11524;50.846;4.326;2022-09-09T00:39:44;24.30;57.90
22714;DHT22;11524;50.846;4.326;2022-09-09T00:48:11;24.30;57.70
22714;DHT22;11524;50.846;4.326;2022-09-09T00:50:59;24.30;57.80
22714;DHT22;11524;50.846;4.326;2022-09-09T00:56:18;24.30;57.60
22714;DHT22;11524;50.846;4.326;2022-09-09T01:01:36;24.30;57.50
22714;DHT22;11524;50.846;4.326;2022-09-09T01:04:07;24.40;57.70
22714;DHT22;11524;50.846;4.326;2022-09-09T01:06:37;24.40;57.70
22714;DHT22;11524;50.846;4.326;2022-09-09T01:09:24;24.40;57.60
22714;DHT22;11524;50.846;4.326;2022-09-09T01:12:15;24.40;57.50
22714;DHT22;11524;50.846;4.326;2022-09-09T01:14:49;24.30;57.50
22714;DHT22;11524;50.846;4.326;2022-09-09T01:17:19;24.40;57.50
22714;DHT22;11524;50.846;4.326;2022-09-09T01:20:25;24.40;57.40
22714;DHT22;11524;50.846;4.326;2022-09-09T01:23:15;24.40;57.40
22714;DHT22;11524;50.846;4.326;2022-09-09T01:28:47;24.40;57.40
22714;DHT22;11524;50.846;4.326;2022-09-09T01:31:18;24.40;57.40
22714;DHT22;11524;50.846;4.326;2022-09-09T01:33:45;24.40;57.40
22714;DHT22;11524;50.846;4.326;2022-09-09T01:36:18;24.40;57.40
22714;DHT22;11524;50.846;4.326;2022-09-09T01:38:45;24.40;57.40
22714;DHT22;11524;50.846;4.326;2022-09-09T01:41:11;24.40;57.40
22714;DHT22;11524;50.846;4.326;2022-09-09T01:43:37;24.40;57.50
22714;DHT22;11524;50.846;4.326;2022-09-09T01:46:02;24.40;57.60
22714;DHT22;11524;50.846;4.326;2022-09-09T01:48:28;24.40;57.70
22714;DHT22;11524;50.846;4.326;2022-09-09T01:50:55;24.40;57.60
22714;DHT22;11524;50.846;4.326;2022-09-09T01:53:21;24.40;57.70
22714;DHT22;11524;50.846;4.326;2022-09-09T01:55:58;24.40;58.20
22714;DHT22;11524;50.846;4.326;2022-09-09T02:03:59;24.40;57.40
22714;DHT22;11524;50.846;4.326;2022-09-09T02:06:36;24.40;57.40
22714;DHT22;11524;50.846;4.326;2022-09-09T02:09:05;24.40;57.40
22714;DHT22;11524;50.846;4.326;2022-09-09T02:11:32;24.40;57.30
22714;DHT22;11524;50.846;4.326;2022-09-09T02:14:01;24.40;57.40
22714;DHT22;11524;50.846;4.326;2022-09-09T02:16:40;24.40;57.30
22714;DHT22;11524;50.846;4.326;2022-09-09T02:19:18;24.40;57.30
22714;DHT22;11524;50.846;4.326;2022-09-09T02:21:49;24.40;57.30
22714;DHT22;11524;50.846;4.326;2022-09-09T02:24:15;24.40;57.20
22714;DHT22;11524;50.846;4.326;2022-09-09T02:26:44;24.40;57.20
22714;DHT22;11524;50.846;4.326;2022-09-09T02:29:19;24.40;57.20
22714;DHT22;11524;50.846;4.326;2022-09-09T02:31:46;24.40;57.30
22714;DHT22;11524;50.846;4.326;2022-09-09T02:34:14;24.30;57.10
22714;DHT22;11524;50.846;4.326;2022-09-09T02:36:42;24.40;57.20
22714;DHT22;11524;50.846;4.326;2022-09-09T02:39:10;24.30;57.20
22714;DHT22;11524;50.846;4.326;2022-09-09T02:41:41;24.30;57.20
22714;DHT22;11524;50.846;4.326;2022-09-09T02:44:14;24.30;57.30
22714;DHT22;11524;50.846;4.326;2022-09-09T02:49:52;24.30;57.40
22714;DHT22;11524;50.846;4.326;2022-09-09T02:54:59;24.30;58.00
22714;DHT22;11524;50.846;4.326;2022-09-09T02:57:31;24.30;57.50
22714;DHT22;11524;50.846;4.326;2022-09-09T02:59:58;24.30;57.40
22714;DHT22;11524;50.846;4.326;2022-09-09T03:02:25;24.30;57.50
22714;DHT22;11524;50.846;4.326;2022-09-09T03:04:51;24.30;57.50
22714;DHT22;11524;50.846;4.326;2022-09-09T03:07:18;24.30;57.60
22714;DHT22;11524;50.846;4.326;2022-09-09T03:09:44;24.30;57.50
22714;DHT22;11524;50.846;4.326;2022-09-09T03:12:11;24.30;57.50
22714;DHT22;11524;50.846;4.326;2022-09-09T03:14:37;24.30;57.50
22714;DHT22;11524;50.846;4.326;2022-09-09T03:17:13;24.30;57.50
22714;DHT22;11524;50.846;4.326;2022-09-09T03:19:38;24.30;57.50
22714;DHT22;11524;50.846;4.326;2022-09-09T03:22:04;24.30;57.50
22714;DHT22;11524;50.846;4.326;2022-09-09T03:24:33;24.30;57.50
22714;DHT22;11524;50.846;4.326;2022-09-09T03:26:58;24.30;57.40
22714;DHT22;11524;50.846;4.326;2022-09-09T03:29:24;24.30;57.50
22714;DHT22;11524;50.846;4.326;2022-09-09T03:31:50;24.30;57.40
22714;DHT22;11524;50.846;4.326;2022-09-09T03:34:16;24.30;57.40
22714;DHT22;11524;50.846;4.326;2022-09-09T03:36:41;24.30;57.40
22714;DHT22;11524;50.846;4.326;2022-09-09T03:39:07;24.30;57.30
22714;DHT22;11524;50.846;4.326;2022-09-09T03:41:33;24.30;57.30
22714;DHT22;11524;50.846;4.326;2022-09-09T03:43:59;24.30;57.40
22714;DHT22;11524;50.846;4.326;2022-09-09T03:46:25;24.30;57.40
22714;DHT22;11524;50.846;4.326;2022-09-09T03:48:54;24.30;57.30
22714;DHT22;11524;50.846;4.326;2022-09-09T03:51:20;24.30;57.20
22714;DHT22;11524;50.846;4.326;2022-09-09T03:53:47;24.30;57.70
22714;DHT22;11524;50.846;4.326;2022-09-09T03:56:13;24.30;57.00
22714;DHT22;11524;50.846;4.326;2022-09-09T03:58:38;24.30;57.10
22714;DHT22;11524;50.846;4.326;2022-09-09T04:01:14;24.30;57.00
22714;DHT22;11524;50.846;4.326;2022-09-09T04:03:40;24.30;57.00
22714;DHT22;11524;50.846;4.326;2022-09-09T04:06:07;24.30;56.80
22714;DHT22;11524;50.846;4.326;2022-09-09T04:08:34;24.30;56.80
22714;DHT22;11524;50.846;4.326;2022-09-09T04:11:02;24.40;56.90
22714;DHT22;11524;50.846;4.326;2022-09-09T04:13:30;24.40;56.90
22714;DHT22;11524;50.846;4.326;2022-09-09T04:15:58;24.40;56.80
22714;DHT22;11524;50.846;4.326;2022-09-09T04:18:25;24.40;56.80
22714;DHT22;11524;50.846;4.326;2022-09-09T04:20:52;24.40;56.90
22714;DHT22;11524;50.846;4.326;2022-09-09T04:23:19;24.40;56.90
22714;DHT22;11524;50.846;4.326;2022-09-09T04:25:50;24.40;56.80
22714;DHT22;11524;50.846;4.326;2022-09-09T04:28:17;24.40;56.80
22714;DHT22;11524;50.846;4.326;2022-09-09T04:30:43;24.40;56.80
22714;DHT22;11524;50.846;4.326;2022-09-09T04:33:10;24.40;56.80
22714;DHT22;11524;50.846;4.326;2022-09-09T04:35:36;24.30;56.60
22714;DHT22;11524;50.846;4.326;2022-09-09T04:38:03;24.40;56.70
22714;DHT22;11524;50.846;4.326;2022-09-09T04:40:29;24.40;56.70
22714;DHT22;11524;50.846;4.326;2022-09-09T04:42:58;24.40;56.70
22714;DHT22;11524;50.846;4.326;2022-09-09T04:45:24;24.40;56.60
22714;DHT22;11524;50.846;4.326;2022-09-09T04:47:51;24.40;56.50
22714;DHT22;11524;50.846;4.326;2022-09-09T04:50:17;24.40;56.40
22714;DHT22;11524;50.846;4.326;2022-09-09T04:52:44;24.40;56.40
22714;DHT22;11524;50.846;4.326;2022-09-09T04:55:09;24.40;56.40
22714;DHT22;11524;50.846;4.326;2022-09-09T04:57:35;24.40;56.30
22714;DHT22;11524;50.846;4.326;2022-09-09T05:00:01;24.40;56.20
22714;DHT22;11524;50.846;4.326;2022-09-09T05:02:27;24.40;56.20
22714;DHT22;11524;50.846;4.326;2022-09-09T05:04:53;24.40;56.20
22714;DHT22;11524;50.846;4.326;2022-09-09T05:07:19;24.40;56.20
22714;DHT22;11524;50.846;4.326;2022-09-09T05:09:44;24.40;56.20
22714;DHT22;11524;50.846;4.326;2022-09-09T05:12:10;24.40;56.20
22714;DHT22;11524;50.846;4.326;2022-09-09T05:14:36;24.40;56.20
22714;DHT22;11524;50.846;4.326;2022-09-09T05:17:03;24.40;56.20
22714;DHT22;11524;50.846;4.326;2022-09-09T05:19:29;24.40;56.20
22714;DHT22;11524;50.846;4.326;2022-09-09T05:21:56;24.40;56.20
22714;DHT22;11524;50.846;4.326;2022-09-09T05:24:22;24.40;56.40
22714;DHT22;11524;50.846;4.326;2022-09-09T05:26:48;24.40;56.40
22714;DHT22;11524;50.846;4.326;2022-09-09T05:29:14;24.40;56.40
22714;DHT22;11524;50.846;4.326;2022-09-09T05:31:40;24.40;56.40
22714;DHT22;11524;50.846;4.326;2022-09-09T05:34:06;24.40;56.40
22714;DHT22;11524;50.846;4.326;2022-09-09T05:36:31;24.60;55.50
22714;DHT22;11524;50.846;4.326;2022-09-09T05:38:57;24.80;54.50
22714;DHT22;11524;50.846;4.326;2022-09-09T05:41:23;25.00;53.60
22714;DHT22;11524;50.846;4.326;2022-09-09T05:43:51;25.20;52.90
22714;DHT22;11524;50.846;4.326;2022-09-09T05:46:21;25.20;52.40
22714;DHT22;11524;50.846;4.326;2022-09-09T05:48:51;25.30;52.20
22714;DHT22;11524;50.846;4.326;2022-09-09T05:51:20;25.20;51.80
22714;DHT22;11524;50.846;4.326;2022-09-09T05:53:47;25.30;52.00
22714;DHT22;11524;50.846;4.326;2022-09-09T05:56:21;25.20;52.00
22714;DHT22;11524;50.846;4.326;2022-09-09T05:58:48;25.00;52.30
22714;DHT22;11524;50.846;4.326;2022-09-09T06:01:17;25.10;52.20
22714;DHT22;11524;50.846;4.326;2022-09-09T06:03:44;25.20;52.00
22714;DHT22;11524;50.846;4.326;2022-09-09T06:06:13;25.20;51.90
22714;DHT22;11524;50.846;4.326;2022-09-09T06:08:43;25.30;51.60
22714;DHT22;11524;50.846;4.326;2022-09-09T06:13:36;25.50;50.80
22714;DHT22;11524;50.846;4.326;2022-09-09T06:16:06;25.60;50.50
22714;DHT22;11524;50.846;4.326;2022-09-09T06:18:33;25.20;50.30
22714;DHT22;11524;50.846;4.326;2022-09-09T06:21:03;23.80;54.00
22714;DHT22;11524;50.846;4.326;2022-09-09T06:23:33;22.90;56.40
22714;DHT22;11524;50.846;4.326;2022-09-09T06:26:09;22.10;58.30
22714;DHT22;11524;50.846;4.326;2022-09-09T06:28:35;21.60;59.40
22714;DHT22;11524;50.846;4.326;2022-09-09T06:31:03;21.40;60.40
22714;DHT22;11524;50.846;4.326;2022-09-09T06:33:35;21.30;60.60
22714;DHT22;11524;50.846;4.326;2022-09-09T06:36:02;21.50;61.30
22714;DHT22;11524;50.846;4.326;2022-09-09T06:38:29;21.80;60.90
22714;DHT22;11524;50.846;4.326;2022-09-09T06:40:56;22.20;59.50
22714;DHT22;11524;50.846;4.326;2022-09-09T06:43:24;22.40;57.90
22714;DHT22;11524;50.846;4.326;2022-09-09T06:45:57;22.60;57.50
22714;DHT22;11524;50.846;4.326;2022-09-09T06:48:23;22.80;57.50
22714;DHT22;11524;50.846;4.326;2022-09-09T06:51:13;23.10;57.00
22714;DHT22;11524;50.846;4.326;2022-09-09T06:53:38;23.30;56.50
22714;DHT22;11524;50.846;4.326;2022-09-09T06:58:40;23.70;55.60
22714;DHT22;11524;50.846;4.326;2022-09-09T07:01:12;23.90;55.10
22714;DHT22;11524;50.846;4.326;2022-09-09T07:03:38;24.00;54.80
22714;DHT22;11524;50.846;4.326;2022-09-09T07:06:05;24.20;54.50
22714;DHT22;11524;50.846;4.326;2022-09-09T07:08:31;24.30;54.30
22714;DHT22;11524;50.846;4.326;2022-09-09T07:11:05;24.40;54.00
22714;DHT22;11524;50.846;4.326;2022-09-09T07:13:31;24.50;53.80
22714;DHT22;11524;50.846;4.326;2022-09-09T07:16:10;24.60;53.50
22714;DHT22;11524;50.846;4.326;2022-09-09T07:18:36;24.60;53.30
22714;DHT22;11524;50.846;4.326;2022-09-09T07:21:03;24.70;53.10
22714;DHT22;11524;50.846;4.326;2022-09-09T07:23:30;24.80;53.00
22714;DHT22;11524;50.846;4.326;2022-09-09T07:25:57;24.90;52.90
22714;DHT22;11524;50.846;4.326;2022-09-09T07:28:23;24.90;52.70
22714;DHT22;11524;50.846;4.326;2022-09-09T07:30:56;25.00;52.70
22714;DHT22;11524;50.846;4.326;2022-09-09T07:33:23;25.00;52.60
22714;DHT22;11524;50.846;4.326;2022-09-09T07:35:50;25.00;52.50
22714;DHT22;11524;50.846;4.326;2022-09-09T07:38:16;25.00;52.40
22714;DHT22;11524;50.846;4.326;2022-09-09T07:40:42;25.00;52.20
22714;DHT22;11524;50.846;4.326;2022-09-09T07:43:07;25.10;52.20
22714;DHT22;11524;50.846;4.326;2022-09-09T07:45:34;25.10;52.20
22714;DHT22;11524;50.846;4.326;2022-09-09T07:48:01;25.20;52.20
22714;DHT22;11524;50.846;4.326;2022-09-09T07:50:30;25.20;52.10
22714;DHT22;11524;50.846;4.326;2022-09-09T07:52:55;25.20;52.10
22714;DHT22;11524;50.846;4.326;2022-09-09T07:55:21;25.20;52.10
22714;DHT22;11524;50.846;4.326;2022-09-09T07:57:50;25.30;52.00
22714;DHT22;11524;50.846;4.326;2022-09-09T08:00:16;25.40;51.90
22714;DHT22;11524;50.846;4.326;2022-09-09T08:02:44;25.50;51.90
22714;DHT22;11524;50.846;4.326;2022-09-09T08:05:10;25.60;51.80
22714;DHT22;11524;50.846;4.326;2022-09-09T08:07:35;25.60;51.60
22714;DHT22;11524;50.846;4.326;2022-09-09T08:10:09;25.70;51.60
22714;DHT22;11524;50.846;4.326;2022-09-09T08:12:35;25.70;51.60
22714;DHT22;11524;50.846;4.326;2022-09-09T08:15:00;25.80;51.40
22714;DHT22;11524;50.846;4.326;2022-09-09T08:17:26;25.80;51.30
22714;DHT22;11524;50.846;4.326;2022-09-09T08:19:52;25.90;51.40
22714;DHT22;11524;50.846;4.326;2022-09-09T08:22:18;25.80;51.40
22714;DHT22;11524;50.846;4.326;2022-09-09T08:24:44;25.80;51.60
22714;DHT22;11524;50.846;4.326;2022-09-09T08:27:10;25.80;51.60
22714;DHT22;11524;50.846;4.326;2022-09-09T08:29:35;25.80;51.60
22714;DHT22;11524;50.846;4.326;2022-09-09T08:32:03;25.70;51.60
22714;DHT22;11524;50.846;4.326;2022-09-09T08:34:28;25.80;51.80
22714;DHT22;11524;50.846;4.326;2022-09-09T08:36:55;25.80;51.80
22714;DHT22;11524;50.846;4.326;2022-09-09T08:39:21;25.80;51.90
22714;DHT22;11524;50.846;4.326;2022-09-09T08:42:06;25.80;51.90
22714;DHT22;11524;50.846;4.326;2022-09-09T08:47:12;25.70;51.90
22714;DHT22;11524;50.846;4.326;2022-09-09T08:58:16;25.20;52.90
22714;DHT22;11524;50.846;4.326;2022-09-09T09:09:30;25.10;52.90
22714;DHT22;11524;50.846;4.326;2022-09-09T09:11:59;25.20;53.10
22714;DHT22;11524;50.846;4.326;2022-09-09T09:14:29;25.30;52.80
22714;DHT22;11524;50.846;4.326;2022-09-09T09:19:34;25.10;53.10
22714;DHT22;11524;50.846;4.326;2022-09-09T09:27:16;25.10;53.20
22714;DHT22;11524;50.846;4.326;2022-09-09T09:29:45;25.10;53.70
22714;DHT22;11524;50.846;4.326;2022-09-09T09:32:18;25.00;53.70
22714;DHT22;11524;50.846;4.326;2022-09-09T09:34:53;25.20;53.60
22714;DHT22;11524;50.846;4.326;2022-09-09T09:37:32;25.20;53.90
22714;DHT22;11524;50.846;4.326;2022-09-09T09:40:11;25.20;53.80
22714;DHT22;11524;50.846;4.326;2022-09-09T09:42:53;25.20;53.50
22714;DHT22;11524;50.846;4.326;2022-09-09T09:45:42;25.30;53.30
22714;DHT22;11524;50.846;4.326;2022-09-09T09:48:15;25.40;53.90
22714;DHT22;11524;50.846;4.326;2022-09-09T09:50:57;25.40;53.30
22714;DHT22;11524;50.846;4.326;2022-09-09T09:56:05;25.40;53.40
22714;DHT22;11524;50.846;4.326;2022-09-09T09:58:50;25.40;53.60
22714;DHT22;11524;50.846;4.326;2022-09-09T10:01:23;25.40;53.60
22714;DHT22;11524;50.846;4.326;2022-09-09T10:04:02;25.40;53.60
22714;DHT22;11524;50.846;4.326;2022-09-09T10:06:36;25.40;53.80
22714;DHT22;11524;50.846;4.326;2022-09-09T10:21:23;25.40;53.80
22714;DHT22;11524;50.846;4.326;2022-09-09T10:32:35;25.50;53.90
22714;DHT22;11524;50.846;4.326;2022-09-09T10:35:21;25.60;53.70
22714;DHT22;11524;50.846;4.326;2022-09-09T10:57:40;26.00;52.90
22714;DHT22;11524;50.846;4.326;2022-09-09T11:00:36;26.00;52.80
22714;DHT22;11524;50.846;4.326;2022-09-09T11:03:04;26.00;52.40
22714;DHT22;11524;50.846;4.326;2022-09-09T11:05:42;26.00;52.50
22714;DHT22;11524;50.846;4.326;2022-09-09T11:08:15;26.00;52.60
22714;DHT22;11524;50.846;4.326;2022-09-09T11:10:53;26.10;52.50
22714;DHT22;11524;50.846;4.326;2022-09-09T11:13:45;26.00;52.50
22714;DHT22;11524;50.846;4.326;2022-09-09T11:21:50;24.40;55.10
22714;DHT22;11524;50.846;4.326;2022-09-09T11:35:39;22.90;59.50
22714;DHT22;11524;50.846;4.326;2022-09-09T11:38:18;22.90;59.60
22714;DHT22;11524;50.846;4.326;2022-09-09T11:40:46;22.80;59.50
22714;DHT22;11524;50.846;4.326;2022-09-09T11:43:27;23.10;59.20
22714;DHT22;11524;50.846;4.326;2022-09-09T11:46:01;22.90;58.90
22714;DHT22;11524;50.846;4.326;2022-09-09T11:53:28;23.00;58.70
22714;DHT22;11524;50.846;4.326;2022-09-09T11:56:02;23.10;59.70
22714;DHT22;11524;50.846;4.326;2022-09-09T11:58:33;23.40;61.40
22714;DHT22;11524;50.846;4.326;2022-09-09T12:01:25;23.60;59.80
22714;DHT22;11524;50.846;4.326;2022-09-09T12:07:00;24.00;59.40
22714;DHT22;11524;50.846;4.326;2022-09-09T12:17:29;24.60;58.20
22714;DHT22;11524;50.846;4.326;2022-09-09T12:25:18;24.80;56.90
22714;DHT22;11524;50.846;4.326;2022-09-09T12:30:44;25.00;56.40
22714;DHT22;11524;50.846;4.326;2022-09-09T12:33:16;25.00;56.20
22714;DHT22;11524;50.846;4.326;2022-09-09T12:35:43;25.10;56.20
22714;DHT22;11524;50.846;4.326;2022-09-09T12:38:17;25.10;56.20
22714;DHT22;11524;50.846;4.326;2022-09-09T12:40:57;25.20;55.90
22714;DHT22;11524;50.846;4.326;2022-09-09T12:43:24;25.20;55.80
22714;DHT22;11524;50.846;4.326;2022-09-09T12:45:52;25.40;55.40
22714;DHT22;11524;50.846;4.326;2022-09-09T12:48:30;25.40;55.20
22714;DHT22;11524;50.846;4.326;2022-09-09T12:50:57;25.50;55.00
22714;DHT22;11524;50.846;4.326;2022-09-09T12:53:28;25.50;54.80
22714;DHT22;11524;50.846;4.326;2022-09-09T12:56:09;25.50;54.80
22714;DHT22;11524;50.846;4.326;2022-09-09T12:58:46;25.60;54.50
22714;DHT22;11524;50.846;4.326;2022-09-09T13:01:24;25.70;54.40
22714;DHT22;11524;50.846;4.326;2022-09-09T13:03:50;25.70;54.20
22714;DHT22;11524;50.846;4.326;2022-09-09T13:06:28;25.80;54.20
22714;DHT22;11524;50.846;4.326;2022-09-09T13:08:58;25.80;54.10
22714;DHT22;11524;50.846;4.326;2022-09-09T13:11:38;25.80;54.00
22714;DHT22;11524;50.846;4.326;2022-09-09T13:14:05;25.80;53.90
22714;DHT22;11524;50.846;4.326;2022-09-09T13:16:34;25.80;53.70
22714;DHT22;11524;50.846;4.326;2022-09-09T13:19:05;25.90;53.70
22714;DHT22;11524;50.846;4.326;2022-09-09T13:21:39;25.90;53.70
22714;DHT22;11524;50.846;4.326;2022-09-09T13:24:06;25.90;53.50
22714;DHT22;11524;50.846;4.326;2022-09-09T13:26:33;25.90;53.40
22714;DHT22;11524;50.846;4.326;2022-09-09T13:29:18;26.00;53.50
22714;DHT22;11524;50.846;4.326;2022-09-09T13:31:44;26.00;53.40
22714;DHT22;11524;50.846;4.326;2022-09-09T13:34:32;26.00;53.20
22714;DHT22;11524;50.846;4.326;2022-09-09T13:37:23;26.00;53.20
22714;DHT22;11524;50.846;4.326;2022-09-09T13:39:53;26.00;53.10
22714;DHT22;11524;50.846;4.326;2022-09-09T13:42:26;26.10;53.20
22714;DHT22;11524;50.846;4.326;2022-09-09T13:44:52;26.10;53.00
22714;DHT22;11524;50.846;4.326;2022-09-09T13:47:19;26.20;52.90
22714;DHT22;11524;50.846;4.326;2022-09-09T13:49:46;26.20;52.70
22714;DHT22;11524;50.846;4.326;2022-09-09T13:52:17;26.30;52.60
22714;DHT22;11524;50.846;4.326;2022-09-09T13:54:47;26.30;52.40
22714;DHT22;11524;50.846;4.326;2022-09-09T13:59:44;26.40;52.30
22714;DHT22;11524;50.846;4.326;2022-09-09T14:02:10;26.40;52.20
22714;DHT22;11524;50.846;4.326;2022-09-09T14:04:35;26.50;52.20
22714;DHT22;11524;50.846;4.326;2022-09-09T14:07:01;26.50;52.00
22714;DHT22;11524;50.846;4.326;2022-09-09T14:09:27;26.50;52.00
22714;DHT22;11524;50.846;4.326;2022-09-09T14:11:53;26.50;51.90
22714;DHT22;11524;50.846;4.326;2022-09-09T14:14:20;26.50;51.80
22714;DHT22;11524;50.846;4.326;2022-09-09T14:16:46;26.50;51.70
22714;DHT22;11524;50.846;4.326;2022-09-09T14:19:12;26.50;51.80
22714;DHT22;11524;50.846;4.326;2022-09-09T14:21:37;26.50;51.90
22714;DHT22;11524;50.846;4.326;2022-09-09T14:24:04;26.40;51.90
22714;DHT22;11524;50.846;4.326;2022-09-09T14:26:30;26.40;51.90
22714;DHT22;11524;50.846;4.326;2022-09-09T14:28:56;26.40;51.90
22714;DHT22;11524;50.846;4.326;2022-09-09T14:31:22;26.40;51.90
22714;DHT22;11524;50.846;4.326;2022-09-09T14:33:48;26.40;51.90
22714;DHT22;11524;50.846;4.326;2022-09-09T14:36:14;26.40;51.90
22714;DHT22;11524;50.846;4.326;2022-09-09T14:38:40;26.40;51.80
22714;DHT22;11524;50.846;4.326;2022-09-09T14:41:14;26.40;51.80
22714;DHT22;11524;50.846;4.326;2022-09-09T14:43:43;26.40;51.80
22714;DHT22;11524;50.846;4.326;2022-09-09T14:46:16;26.40;51.80
22714;DHT22;11524;50.846;4.326;2022-09-09T14:48:42;26.30;52.10
22714;DHT22;11524;50.846;4.326;2022-09-09T14:51:29;26.30;51.90
22714;DHT22;11524;50.846;4.326;2022-09-09T14:53:56;26.30;52.00
22714;DHT22;11524;50.846;4.326;2022-09-09T14:56:27;26.30;52.00
22714;DHT22;11524;50.846;4.326;2022-09-09T14:58:54;26.30;52.00
22714;DHT22;11524;50.846;4.326;2022-09-09T15:01:21;26.30;52.70
22714;DHT22;11524;50.846;4.326;2022-09-09T15:03:58;26.30;52.20
22714;DHT22;11524;50.846;4.326;2022-09-09T15:06:29;26.30;52.40
22714;DHT22;11524;50.846;4.326;2022-09-09T15:08:56;26.30;52.40
22714;DHT22;11524;50.846;4.326;2022-09-09T15:11:26;26.30;52.50
22714;DHT22;11524;50.846;4.326;2022-09-09T15:13:53;26.30;52.50
22714;DHT22;11524;50.846;4.326;2022-09-09T15:16:20;26.30;52.30
22714;DHT22;11524;50.846;4.326;2022-09-09T15:18:52;26.40;52.00
22714;DHT22;11524;50.846;4.326;2022-09-09T15:21:20;26.50;51.70
22714;DHT22;11524;50.846;4.326;2022-09-09T15:23:47;26.50;51.50
22714;DHT22;11524;50.846;4.326;2022-09-09T15:26:14;26.50;51.20
22714;DHT22;11524;50.846;4.326;2022-09-09T15:28:41;26.50;50.70
22714;DHT22;11524;50.846;4.326;2022-09-09T15:33:49;26.50;50.70
22714;DHT22;11524;50.846;4.326;2022-09-09T15:36:25;26.50;51.00
22714;DHT22;11524;50.846;4.326;2022-09-09T15:38:52;26.40;51.20
22714;DHT22;11524;50.846;4.326;2022-09-09T15:41:19;26.30;51.30
22714;DHT22;11524;50.846;4.326;2022-09-09T15:43:47;26.30;51.50
22714;DHT22;11524;50.846;4.326;2022-09-09T15:48:43;26.20;51.30
22714;DHT22;11524;50.846;4.326;2022-09-09T15:51:11;26.20;51.30
22714;DHT22;11524;50.846;4.326;2022-09-09T15:53:39;26.20;51.40
22714;DHT22;11524;50.846;4.326;2022-09-09T15:56:07;26.20;51.50
22714;DHT22;11524;50.846;4.326;2022-09-09T15:58:34;26.20;51.80
22714;DHT22;11524;50.846;4.326;2022-09-09T16:01:10;26.20;52.00
22714;DHT22;11524;50.846;4.326;2022-09-09T16:03:41;26.20;52.20
22714;DHT22;11524;50.846;4.326;2022-09-09T16:06:08;26.10;52.20
22714;DHT22;11524;50.846;4.326;2022-09-09T16:08:35;26.20;52.30
22714;DHT22;11524;50.846;4.326;2022-09-09T16:11:09;26.10;52.30
22714;DHT22;11524;50.846;4.326;2022-09-09T16:13:39;26.10;52.40
22714;DHT22;11524;50.846;4.326;2022-09-09T16:16:05;26.10;53.10
22714;DHT22;11524;50.846;4.326;2022-09-09T16:18:36;26.00;52.60
22714;DHT22;11524;50.846;4.326;2022-09-09T16:21:03;26.00;52.70
22714;DHT22;11524;50.846;4.326;2022-09-09T16:23:34;26.00;52.90
22714;DHT22;11524;50.846;4.326;2022-09-09T16:25:59;25.80;52.70
22714;DHT22;11524;50.846;4.326;2022-09-09T16:28:25;25.80;53.50
22714;DHT22;11524;50.846;4.326;2022-09-09T16:30:51;25.90;53.40
22714;DHT22;11524;50.846;4.326;2022-09-09T16:33:17;25.80;53.10
22714;DHT22;11524;50.846;4.326;2022-09-09T16:35:43;25.90;53.00
22714;DHT22;11524;50.846;4.326;2022-09-09T16:38:09;26.00;52.70
22714;DHT22;11524;50.846;4.326;2022-09-09T16:40:36;26.10;52.50
22714;DHT22;11524;50.846;4.326;2022-09-09T16:43:02;25.90;52.60
22714;DHT22;11524;50.846;4.326;2022-09-09T16:45:28;25.80;53.00
22714;DHT22;11524;50.846;4.326;2022-09-09T16:47:54;25.80;53.10
22714;DHT22;11524;50.846;4.326;2022-09-09T16:50:20;25.80;52.90
22714;DHT22;11524;50.846;4.326;2022-09-09T16:57:37;25.70;53.10
22714;DHT22;11524;50.846;4.326;2022-09-09T17:00:04;25.80;52.70
22714;DHT22;11524;50.846;4.326;2022-09-09T17:02:31;25.60;52.60
22714;DHT22;11524;50.846;4.326;2022-09-09T17:05:01;25.50;53.10
22714;DHT22;11524;50.846;4.326;2022-09-09T17:07:30;25.40;53.50
22714;DHT22;11524;50.846;4.326;2022-09-09T17:09:57;25.40;53.90
22714;DHT22;11524;50.846;4.326;2022-09-09T17:20:27;24.20;56.60
22714;DHT22;11524;50.846;4.326;2022-09-09T17:22:53;23.80;57.50
22714;DHT22;11524;50.846;4.326;2022-09-09T17:25:19;23.70;57.70
22714;DHT22;11524;50.846;4.326;2022-09-09T17:27:48;23.80;57.20
22714;DHT22;11524;50.846;4.326;2022-09-09T17:30:13;24.10;56.80
22714;DHT22;11524;50.846;4.326;2022-09-09T17:32:40;24.40;56.20
22714;DHT22;11524;50.846;4.326;2022-09-09T17:35:07;24.70;55.40
22714;DHT22;11524;50.846;4.326;2022-09-09T17:37:32;24.90;54.70
22714;DHT22;11524;50.846;4.326;2022-09-09T17:39:58;25.00;53.90
22714;DHT22;11524;50.846;4.326;2022-09-09T17:42:24;25.20;53.30
22714;DHT22;11524;50.846;4.326;2022-09-09T17:44:50;25.20;52.70
22714;DHT22;11524;50.846;4.326;2022-09-09T17:47:15;25.20;51.80
22714;DHT22;11524;50.846;4.326;2022-09-09T17:49:41;25.00;52.00
22714;DHT22;11524;50.846;4.326;2022-09-09T17:52:07;25.10;52.00
22714;DHT22;11524;50.846;4.326;2022-09-09T17:54:32;25.10;51.90
22714;DHT22;11524;50.846;4.326;2022-09-09T17:56:58;25.20;51.80
22714;DHT22;11524;50.846;4.326;2022-09-09T17:59:24;25.20;51.80
22714;DHT22;11524;50.846;4.326;2022-09-09T18:01:51;25.20;51.70
22714;DHT22;11524;50.846;4.326;2022-09-09T18:04:18;25.10;51.70
22714;DHT22;11524;50.846;4.326;2022-09-09T18:06:46;25.20;51.80
22714;DHT22;11524;50.846;4.326;2022-09-09T18:09:14;25.00;51.80
22714;DHT22;11524;50.846;4.326;2022-09-09T18:11:44;25.10;51.90
22714;DHT22;11524;50.846;4.326;2022-09-09T18:14:12;25.20;51.80
22714;DHT22;11524;50.846;4.326;2022-09-09T18:16:42;25.20;51.50
22714;DHT22;11524;50.846;4.326;2022-09-09T18:19:10;25.20;51.30
22714;DHT22;11524;50.846;4.326;2022-09-09T18:21:39;25.20;51.30
22714;DHT22;11524;50.846;4.326;2022-09-09T18:24:08;24.90;51.50
22714;DHT22;11524;50.846;4.326;2022-09-09T18:26:35;24.90;51.90
22714;DHT22;11524;50.846;4.326;2022-09-09T18:29:09;24.70;51.90
22714;DHT22;11524;50.846;4.326;2022-09-09T18:31:36;24.80;52.00
22714;DHT22;11524;50.846;4.326;2022-09-09T18:34:05;24.90;51.80
22714;DHT22;11524;50.846;4.326;2022-09-09T18:36:34;25.00;52.10
22714;DHT22;11524;50.846;4.326;2022-09-09T18:39:01;25.20;51.20
22714;DHT22;11524;50.846;4.326;2022-09-09T18:41:33;25.30;50.90